createdAt,value
2017-09-08T07:17:22.388Z,80.26
2017-09-08T07:19:50.786Z,79.71
2017-09-08T07:22:20.736Z,79.61
2017-09-08T07:24:51.236Z,80.35
2017-09-08T07:27:19.600Z,79.31
2017-09-08T07:29:48.046Z,80.21
2017-09-08T07:32:16.785Z,79.59
2017-09-08T07:34:45.187Z,79.02
2017-09-08T07:37:13.632Z,78.91
2017-09-08T07:39:44.362Z,80.20
2017-09-08T07:42:13.588Z,80.71
2017-09-08T07:44:41.970Z,79.69
2017-09-08T07:47:10.897Z,80.35
2017-09-08T07:49:40.272Z,79.66
2017-09-08T07:52:08.862Z,79.60
2017-09-08T07:54:38.669Z,79.66
2017-09-08T07:57:07.113Z,79.25
2017-09-08T07:59:35.532Z,79.90
2017-09-08T08:02:05.002Z,80.56
2017-09-08T08:04:34.235Z,80.71
2017-09-08T08:07:03.869Z,80.91
2017-09-08T08:09:32.648Z,81.44
2017-09-08T08:12:00.999Z,82.38
2017-09-08T08:14:29.370Z,81.86
2017-09-08T08:16:58.978Z,80.99
2017-09-08T08:19:27.553Z,80.83
2017-09-08T08:21:56.368Z,80.70
2017-09-08T08:24:25.436Z,80.59
2017-09-08T08:26:53.834Z,81.01
2017-09-08T08:29:22.859Z,80.64
2017-09-08T08:31:53.315Z,80.82
2017-09-08T08:34:21.677Z,80.05
2017-09-08T08:36:50.810Z,80.60
2017-09-08T08:39:21.981Z,80.55
2017-09-08T08:41:50.330Z,80.37
2017-09-08T08:44:22.120Z,80.97
2017-09-08T08:46:50.576Z,81.68
2017-09-08T08:49:20.285Z,81.30
2017-09-08T08:51:49.693Z,80.82
2017-09-08T08:54:18.063Z,81.03
2017-09-08T08:56:47.427Z,80.31
2017-09-08T08:59:17.628Z,80.74
2017-09-08T09:01:47.361Z,81.00
2017-09-08T09:04:16.004Z,80.38
2017-09-08T09:06:45.171Z,80.29
2017-09-08T09:09:14.614Z,80.18
2017-09-08T09:11:43.078Z,80.37
2017-09-08T09:14:12.225Z,81.70
2017-09-08T09:16:40.600Z,81.58
2017-09-08T09:19:10.722Z,81.22
2017-09-08T09:21:39.785Z,80.85
2017-09-08T09:24:08.126Z,79.85
2017-09-08T09:26:36.492Z,80.66
2017-09-08T09:29:05.845Z,79.44
2017-09-08T09:31:34.251Z,79.20
2017-09-08T09:34:04.356Z,79.11
2017-09-08T09:36:33.081Z,78.81
2017-09-08T09:39:02.348Z,79.01
2017-09-08T09:41:32.028Z,79.27
2017-09-08T09:44:00.651Z,78.21
2017-09-08T09:46:29.767Z,80.03
2017-09-08T09:48:58.893Z,79.05
2017-09-08T09:51:28.795Z,79.23
2017-09-08T09:53:58.795Z,78.96
2017-09-08T09:56:28.299Z,79.09
2017-09-08T09:58:56.978Z,79.01
2017-09-08T10:01:25.352Z,79.03
2017-09-08T10:03:54.470Z,78.96
2017-09-08T10:06:23.254Z,79.48
2017-09-08T10:08:51.633Z,79.76
2017-09-08T10:11:21.951Z,79.63
2017-09-08T10:13:51.976Z,79.99
2017-09-08T10:16:20.330Z,79.23
2017-09-08T10:18:48.686Z,77.83
2017-09-08T10:21:17.622Z,79.46
2017-09-08T10:23:45.962Z,78.92
2017-09-08T10:26:14.317Z,81.02
2017-09-08T10:28:43.046Z,80.46
2017-09-08T10:31:11.957Z,80.55
2017-09-08T10:33:40.331Z,80.15
2017-09-08T10:36:11.241Z,80.08
2017-09-08T10:38:40.459Z,79.89
2017-09-08T10:41:09.819Z,80.15
2017-09-08T10:43:38.662Z,81.10
2017-09-08T10:46:07.779Z,79.87
2017-09-08T10:48:36.140Z,78.40
2017-09-08T10:51:05.756Z,78.09
2017-09-08T10:53:34.112Z,78.76
2017-09-08T10:56:02.454Z,80.02
2017-09-08T10:58:31.226Z,79.94
2017-09-08T11:00:59.571Z,79.37
2017-09-08T11:03:29.222Z,80.18
2017-09-08T11:05:58.084Z,80.53
2017-09-08T11:08:26.422Z,80.33
2017-09-08T11:10:55.639Z,80.23
2017-09-08T11:13:25.161Z,79.41
2017-09-08T11:15:54.361Z,80.41
2017-09-08T11:18:23.555Z,78.90
2017-09-08T11:20:53.000Z,80.47
2017-09-08T11:23:21.377Z,80.17
2017-09-08T11:25:50.327Z,80.97
2017-09-08T11:28:19.136Z,79.45
2017-09-08T11:30:47.502Z,80.33
2017-09-08T11:33:23.167Z,80.27
2017-09-08T11:35:57.060Z,80.68
2017-09-08T11:38:25.951Z,80.54
2017-09-08T11:40:54.337Z,80.97
2017-09-08T11:43:23.669Z,79.89
2017-09-08T11:45:52.334Z,79.30
2017-09-08T11:48:20.671Z,79.69
2017-09-08T11:50:49.749Z,79.06
2017-09-08T11:53:18.465Z,79.64
2017-09-08T11:55:47.048Z,79.59
2017-09-08T11:58:15.442Z,79.49
2017-09-08T12:00:45.707Z,79.78
2017-09-08T12:03:14.050Z,79.86
2017-09-08T12:05:42.417Z,80.52
2017-09-08T12:08:11.791Z,80.49
2017-09-08T12:10:40.165Z,80.66
2017-09-08T12:13:08.500Z,80.80
2017-09-08T12:15:37.269Z,81.16
2017-09-08T12:18:06.400Z,82.08
2017-09-08T12:20:34.746Z,81.48
2017-09-08T12:23:04.140Z,81.60
2017-09-08T12:25:32.484Z,81.31
2017-09-08T12:28:00.839Z,80.40
2017-09-08T12:30:29.607Z,81.55
2017-09-08T12:32:57.977Z,80.85
2017-09-08T12:35:26.359Z,80.59
2017-09-08T12:37:55.233Z,80.23
2017-09-08T12:40:24.472Z,80.77
2017-09-08T12:42:53.827Z,80.96
2017-09-08T12:45:23.919Z,81.52
2017-09-08T12:47:52.284Z,82.58
2017-09-08T12:50:22.482Z,81.69
2017-09-08T12:52:51.933Z,82.65
2017-09-08T12:55:20.296Z,81.31
2017-09-08T12:57:49.492Z,80.59
2017-09-08T13:00:18.963Z,80.40
2017-09-08T13:02:47.321Z,80.58
2017-09-08T13:05:16.666Z,81.51
2017-09-08T13:07:45.618Z,81.27
2017-09-08T13:10:14.038Z,81.50
2017-09-08T13:12:42.467Z,81.62
2017-09-08T13:15:12.620Z,82.79
2017-09-08T13:17:40.979Z,82.53
2017-09-08T13:20:09.350Z,82.05
2017-09-08T13:22:38.747Z,82.17
2017-09-08T13:25:07.867Z,83.11
2017-09-08T13:27:36.249Z,81.01
2017-09-08T13:30:06.111Z,81.43
2017-09-08T13:32:35.538Z,81.36
2017-09-08T13:35:03.891Z,81.05
2017-09-08T13:37:32.904Z,82.30
2017-09-08T13:40:01.454Z,81.29
2017-09-08T13:42:29.781Z,81.67
2017-09-08T13:45:00.030Z,81.76
2017-09-08T13:47:28.382Z,81.62
2017-09-08T13:49:58.141Z,82.31
2017-09-08T13:52:27.265Z,82.67
2017-09-08T13:54:56.195Z,82.34
2017-09-08T13:57:24.546Z,82.62
2017-09-08T13:59:53.185Z,82.80
2017-09-08T14:02:22.229Z,83.14
2017-09-08T14:04:50.592Z,82.98
2017-09-08T14:07:19.329Z,82.91
2017-09-08T14:09:47.675Z,82.71
2017-09-08T14:12:16.040Z,81.98
2017-09-08T14:14:44.786Z,82.65
2017-09-08T14:17:13.133Z,82.67
2017-09-08T14:19:41.487Z,81.85
2017-09-08T14:22:10.202Z,82.66
2017-09-08T14:24:39.394Z,82.73
2017-09-08T14:27:07.783Z,82.22
2017-09-08T14:29:39.517Z,82.53
2017-09-08T14:32:08.686Z,83.24
2017-09-08T14:34:37.063Z,82.30
2017-09-08T14:37:06.070Z,82.18
2017-09-08T14:39:34.449Z,82.25
2017-09-08T14:42:02.795Z,83.03
2017-09-08T14:44:31.568Z,82.65
2017-09-08T14:46:59.931Z,82.63
2017-09-08T14:49:28.364Z,82.22
2017-09-08T14:51:56.979Z,81.46
2017-09-08T14:54:25.337Z,82.47
2017-09-08T14:56:53.694Z,81.87
2017-09-08T14:59:23.031Z,81.45
2017-09-08T15:01:51.784Z,80.84
2017-09-08T15:04:20.160Z,81.80
2017-09-08T15:06:49.025Z,81.87
2017-09-08T15:09:17.367Z,81.55
2017-09-08T15:11:45.731Z,80.80
2017-09-08T15:14:15.982Z,82.17
2017-09-08T15:16:44.845Z,82.51
2017-09-08T15:19:14.135Z,82.02
2017-09-08T15:21:43.942Z,83.18
2017-09-08T15:24:12.297Z,81.95
2017-09-08T15:26:40.652Z,81.90
2017-09-08T15:29:10.047Z,81.14
2017-09-08T15:31:39.199Z,82.08
2017-09-08T15:34:09.111Z,82.38
2017-09-08T15:36:37.911Z,83.63
2017-09-08T15:39:07.113Z,82.48
2017-09-08T15:41:35.469Z,83.11
2017-09-08T15:44:04.252Z,82.37
2017-09-08T15:46:32.608Z,81.97
2017-09-08T15:49:00.990Z,82.08
2017-09-08T15:51:29.705Z,82.50
2017-09-08T15:53:58.056Z,83.42
2017-09-08T15:56:26.875Z,82.48
2017-09-08T15:58:56.460Z,81.93
2017-09-08T16:01:25.276Z,82.03
2017-09-08T16:03:53.622Z,81.82
2017-09-08T16:06:23.161Z,82.07
2017-09-08T16:08:52.401Z,81.96
2017-09-08T16:11:21.558Z,81.87
2017-09-08T16:13:50.292Z,82.29
2017-09-08T16:16:19.422Z,82.53
2017-09-08T16:18:48.129Z,83.38
2017-09-08T16:21:19.467Z,82.47
2017-09-08T16:23:47.831Z,81.93
2017-09-08T16:26:16.979Z,82.21
2017-09-08T16:28:46.212Z,82.31
2017-09-08T16:31:15.325Z,82.47
2017-09-08T16:33:43.689Z,81.45
2017-09-08T16:36:14.143Z,81.61
2017-09-08T16:38:42.542Z,81.25
2017-09-08T16:41:10.899Z,81.62
2017-09-08T16:43:39.583Z,82.18
2017-09-08T16:46:07.940Z,81.91
2017-09-08T16:48:36.378Z,81.04
2017-09-08T16:51:05.431Z,81.80
2017-09-08T16:53:34.631Z,82.41
2017-09-08T16:56:03.005Z,83.19
2017-09-08T16:58:31.734Z,82.09
2017-09-08T17:01:00.095Z,83.05
2017-09-08T17:03:28.435Z,82.42
2017-09-08T17:05:57.965Z,82.97
2017-09-08T17:08:26.366Z,83.24
2017-09-08T17:10:54.717Z,82.55
2017-09-08T17:13:23.814Z,81.81
2017-09-08T17:15:52.199Z,82.67
2017-09-08T17:18:24.081Z,83.77
2017-09-08T17:20:53.394Z,83.47
2017-09-08T17:23:21.967Z,83.56
2017-09-08T17:25:50.313Z,82.59
2017-09-08T17:28:19.191Z,82.73
2017-09-08T17:30:47.559Z,82.30
2017-09-08T17:33:15.908Z,82.73
2017-09-08T17:35:44.725Z,82.90
2017-09-08T17:38:13.902Z,82.77
2017-09-08T17:40:42.271Z,83.19
2017-09-08T17:43:11.104Z,82.66
2017-09-08T17:45:39.476Z,82.16
2017-09-08T17:48:08.580Z,82.00
2017-09-08T17:50:38.621Z,81.96
2017-09-08T17:53:07.497Z,82.64
2017-09-08T17:55:38.349Z,82.85
2017-09-08T17:58:07.139Z,83.29
2017-09-08T18:00:35.501Z,84.61
2017-09-08T18:03:03.929Z,84.06
2017-09-08T18:05:32.652Z,83.21
2017-09-08T18:08:01.010Z,82.84
2017-09-08T18:10:30.199Z,82.96
2017-09-08T18:12:58.819Z,83.77
2017-09-08T18:15:27.208Z,83.63
2017-09-08T18:17:57.293Z,83.13
2017-09-08T18:20:26.230Z,83.86
2017-09-08T18:22:54.583Z,83.34
2017-09-08T18:25:22.967Z,83.41
2017-09-08T18:27:51.672Z,83.30
2017-09-08T18:30:20.035Z,83.23
2017-09-08T18:32:49.814Z,83.19
2017-09-08T18:35:18.470Z,83.32
2017-09-08T18:37:47.625Z,83.98
2017-09-08T18:40:16.699Z,84.01
2017-09-08T18:42:45.486Z,83.33
2017-09-08T18:45:13.901Z,82.53
2017-09-08T18:47:43.939Z,84.58
2017-09-08T18:50:13.085Z,84.12
2017-09-08T18:52:41.436Z,83.34
2017-09-08T18:55:09.823Z,82.26
2017-09-08T18:57:38.691Z,83.36
2017-09-08T19:00:07.038Z,84.07
2017-09-08T19:02:36.185Z,83.56
2017-09-08T19:05:05.926Z,83.71
2017-09-08T19:07:35.788Z,83.49
2017-09-08T19:10:04.364Z,83.51
2017-09-08T19:12:32.978Z,82.82
2017-09-08T19:15:01.311Z,82.82
2017-09-08T19:17:29.652Z,82.47
2017-09-08T19:19:59.249Z,82.05
2017-09-08T19:22:28.251Z,82.73
2017-09-08T19:24:56.620Z,83.38
2017-09-08T19:27:25.658Z,82.74
2017-09-08T19:29:54.638Z,82.65
2017-09-08T19:32:23.115Z,83.27
2017-09-08T19:34:52.662Z,82.71
2017-09-08T19:37:21.042Z,81.77
2017-09-08T19:39:50.370Z,81.18
2017-09-08T19:42:20.605Z,80.99
2017-09-08T19:44:48.954Z,82.54
2017-09-08T19:47:17.523Z,82.10
2017-09-08T19:49:46.374Z,82.81
2017-09-08T19:52:15.418Z,83.18
2017-09-08T19:54:43.800Z,82.99
2017-09-08T19:57:12.678Z,83.12
2017-09-08T19:59:41.786Z,82.74
2017-09-08T20:02:10.142Z,82.27
2017-09-08T20:04:39.985Z,82.92
2017-09-08T20:07:08.392Z,83.34
2017-09-08T20:09:36.742Z,83.09
2017-09-08T20:12:06.237Z,82.44
2017-09-08T20:14:34.575Z,81.41
2017-09-08T20:17:02.954Z,80.65
2017-09-08T20:19:32.326Z,80.63
2017-09-08T20:22:00.676Z,81.47
2017-09-08T20:24:30.618Z,80.95
2017-09-08T20:26:59.294Z,82.15
2017-09-08T20:29:28.509Z,81.79
2017-09-08T20:31:56.954Z,81.61
2017-09-08T20:34:25.646Z,81.47
2017-09-08T20:36:54.456Z,81.72
2017-09-08T20:39:22.800Z,82.15
2017-09-08T20:41:52.513Z,81.92
2017-09-08T20:44:22.801Z,81.61
2017-09-08T20:46:51.156Z,81.97
2017-09-08T20:49:19.901Z,81.83
2017-09-08T20:51:48.283Z,81.66
2017-09-08T20:54:16.830Z,81.41
2017-09-08T20:56:46.636Z,80.43
2017-09-08T20:59:15.049Z,80.46
2017-09-08T21:01:45.257Z,80.78
2017-09-08T21:04:14.048Z,81.18
2017-09-08T21:06:42.394Z,81.86
2017-09-08T21:09:10.752Z,81.47
2017-09-08T21:11:39.435Z,81.68
2017-09-08T21:14:07.781Z,81.45
2017-09-08T21:16:36.163Z,81.97
2017-09-08T21:19:04.882Z,81.78
2017-09-08T21:21:33.541Z,81.44
2017-09-08T21:24:01.873Z,82.78
2017-09-08T21:26:30.518Z,82.24
2017-09-08T21:28:58.865Z,81.70
2017-09-08T21:31:28.018Z,82.24
2017-09-08T21:33:57.326Z,82.30
2017-09-08T21:36:26.453Z,81.37
2017-09-08T21:38:55.441Z,82.69
2017-09-08T21:41:24.191Z,81.95
2017-09-08T21:43:52.775Z,81.37
2017-09-08T21:46:21.131Z,80.97
2017-09-08T21:48:49.750Z,79.90
2017-09-08T21:51:18.095Z,80.54
2017-09-08T21:53:46.458Z,80.67
2017-09-08T21:56:16.009Z,81.02
2017-09-08T21:58:44.355Z,80.85
2017-09-08T22:01:12.736Z,81.34
2017-09-08T22:03:41.857Z,81.30
2017-09-08T22:06:10.221Z,81.47
2017-09-08T22:08:38.612Z,81.17
2017-09-08T22:11:07.246Z,81.39
2017-09-08T22:13:35.588Z,80.77
2017-09-08T22:16:04.063Z,80.73
2017-09-08T22:18:32.847Z,80.79
2017-09-08T22:21:01.218Z,80.19
2017-09-08T22:23:29.558Z,79.45
2017-09-08T22:25:58.268Z,79.53
2017-09-08T22:28:27.336Z,79.23
2017-09-08T22:30:56.010Z,79.91
2017-09-08T22:33:24.866Z,80.10
2017-09-08T22:35:53.216Z,80.30
2017-09-08T22:38:22.794Z,80.04
2017-09-08T22:40:51.466Z,80.01
2017-09-08T22:43:20.257Z,79.98
2017-09-08T22:45:48.612Z,79.74
2017-09-08T22:48:17.410Z,80.58
2017-09-08T22:50:46.538Z,80.71
2017-09-08T22:53:14.872Z,80.39
2017-09-08T22:55:43.663Z,80.13
2017-09-08T22:58:12.015Z,80.83
2017-09-08T23:00:41.110Z,81.27
2017-09-08T23:03:09.732Z,81.99
2017-09-08T23:05:38.103Z,81.38
2017-09-08T23:08:06.507Z,81.52
2017-09-08T23:10:35.391Z,81.68
2017-09-08T23:13:03.728Z,82.24
2017-09-08T23:15:32.041Z,81.76
2017-09-08T23:18:01.321Z,81.83
2017-09-08T23:20:29.763Z,82.30
2017-09-08T23:22:58.154Z,82.06
2017-09-08T23:25:26.782Z,82.67
2017-09-08T23:27:55.135Z,81.87
2017-09-08T23:30:23.483Z,82.74
2017-09-08T23:32:52.514Z,82.83
2017-09-08T23:35:20.858Z,82.71
2017-09-08T23:37:49.209Z,82.25
2017-09-08T23:40:18.175Z,82.84
2017-09-08T23:42:47.457Z,82.63
2017-09-08T23:45:15.802Z,82.28
2017-09-08T23:47:45.339Z,82.14
2017-09-08T23:50:14.446Z,81.79
2017-09-08T23:52:42.854Z,81.86
2017-09-08T23:55:11.746Z,82.38
2017-09-08T23:57:40.124Z,83.03
